Time;durP1;ratioP1;P1;durP2;ratioP2;P2;SDS_P1;SDS_P2;PMS_P1;PMS_P2;Temp;Humidity;BMP_temperature;BMP_pressure;BME280_temperature;BME280_humidity;BME280_pressure;Samples;Min_cycle;Max_cycle;Signal;HPM_P1;HPM_P2
2022/02/17 00:00:42;;;;;;;4.60;1.58;;;24.00;57.00;;;;;;5088510;28;20661;-59
2022/02/17 00:03:13;;;;;;;2.65;1.48;;;24.00;56.90;;;;;;5087930;28;20617;-59
2022/02/17 00:05:44;;;;;;;2.67;1.40;;;24.10;56.90;;;;;;5088443;28;20197;-61
2022/02/17 00:08:16;;;;;;;3.03;1.65;;;24.10;56.80;;;;;;5087758;28;20893;-60
2022/02/17 00:10:48;;;;;;;2.67;1.60;;;24.10;56.80;;;;;;5087282;28;20309;-58
2022/02/17 00:13:19;;;;;;;2.97;1.52;;;24.20;56.80;;;;;;5087621;28;20198;-58
2022/02/17 00:15:50;;;;;;;4.15;1.65;;;24.20;56.80;;;;;;5087943;28;20239;-58
2022/02/17 00:18:23;;;;;;;2.38;1.52;;;24.20;56.60;;;;;;5088603;28;20526;-59
2022/02/17 00:20:55;;;;;;;3.28;1.30;;;24.20;56.50;;;;;;5087735;28;20569;-58
2022/02/17 00:23:27;;;;;;;2.35;1.42;;;24.20;56.50;;;;;;5087759;28;20186;-58
2022/02/17 00:25:59;;;;;;;3.22;1.38;;;24.30;56.50;;;;;;5088316;28;20243;-58
2022/02/17 00:28:30;;;;;;;1.63;1.30;;;24.30;56.40;;;;;;5088891;28;20190;-57
2022/02/17 00:31:01;;;;;;;1.48;1.20;;;24.30;56.40;;;;;;5087775;28;20222;-59
2022/02/17 00:33:32;;;;;;;2.08;1.42;;;24.30;56.40;;;;;;5088289;28;20626;-58
2022/02/17 00:36:06;;;;;;;4.10;1.63;;;24.30;56.30;;;;;;5087938;28;20627;-58
2022/02/17 00:38:39;;;;;;;2.53;1.20;;;24.30;56.20;;;;;;5086559;28;20212;-58
2022/02/17 00:41:11;;;;;;;2.90;1.48;;;24.30;56.20;;;;;;5087722;28;20214;-59
2022/02/17 00:43:42;;;;;;;2.65;1.52;;;24.40;56.30;;;;;;5087543;28;20197;-59
2022/02/17 00:46:13;;;;;;;2.90;1.65;;;24.40;56.20;;;;;;5087946;28;20248;-60
2022/02/17 00:48:43;;;;;;;5.38;1.50;;;24.40;56.20;;;;;;5089055;28;20874;-59
2022/02/17 00:51:14;;;;;;;1.50;1.25;;;24.40;56.10;;;;;;5090739;28;20234;-59
2022/02/17 00:53:45;;;;;;;2.60;1.27;;;24.50;56.10;;;;;;5091566;28;20849;-58
2022/02/17 00:56:17;;;;;;;2.58;1.40;;;24.40;56.00;;;;;;5092120;28;20564;-60
2022/02/17 00:58:48;;;;;;;1.95;1.10;;;24.50;56.10;;;;;;5091832;28;20194;-60
2022/02/17 01:01:19;;;;;;;2.58;1.50;;;24.50;56.00;;;;;;5091515;28;20693;-60
2022/02/17 01:03:49;;;;;;;3.78;1.60;;;24.50;56.00;;;;;;5091433;28;20259;-60
2022/02/17 01:06:20;;;;;;;2.95;1.33;;;24.50;56.00;;;;;;5091322;28;20255;-58
2022/02/17 01:08:51;;;;;;;3.45;1.23;;;24.60;55.90;;;;;;5091501;28;20252;-61
2022/02/17 01:11:23;;;;;;;2.75;1.30;;;24.60;55.80;;;;;;5091310;28;20234;-59
2022/02/17 01:13:54;;;;;;;4.38;1.65;;;24.60;55.80;;;;;;5092023;28;20240;-59
2022/02/17 01:16:24;;;;;;;3.67;1.50;;;24.60;55.70;;;;;;5091057;28;20195;-59
2022/02/17 01:18:55;;;;;;;3.25;1.27;;;24.70;55.80;;;;;;5091306;28;20244;-59
2022/02/17 01:21:26;;;;;;;3.88;1.63;;;24.70;55.80;;;;;;5090617;28;20202;-59
2022/02/17 01:23:56;;;;;;;2.08;1.40;;;24.70;55.80;;;;;;5090263;28;20635;-58
2022/02/17 01:26:29;;;;;;;2.45;1.50;;;24.70;55.70;;;;;;5090946;28;20194;-59
2022/02/17 01:29:00;;;;;;;2.75;1.30;;;24.70;55.70;;;;;;5091193;28;20194;-58
2022/02/17 01:31:30;;;;;;;2.78;1.40;;;24.70;55.60;;;;;;5091519;28;20708;-60
2022/02/17 01:34:01;;;;;;;2.83;1.40;;;24.70;55.70;;;;;;5090597;28;20202;-59
2022/02/17 01:36:31;;;;;;;3.20;1.45;;;24.70;55.70;;;;;;5090631;28;20205;-58
2022/02/17 01:39:02;;;;;;;2.22;1.30;;;24.70;55.60;;;;;;5090213;28;20202;-60
2022/02/17 01:41:35;;;;;;;2.15;1.25;;;24.80;55.60;;;;;;5090236;28;20194;-58
2022/02/17 01:44:08;;;;;;;3.35;1.40;;;24.80;55.50;;;;;;5091135;28;20232;-59
2022/02/17 01:46:40;;;;;;;2.72;1.20;;;24.80;55.50;;;;;;5089890;28;20267;-59
2022/02/17 01:49:11;;;;;;;2.55;1.20;;;24.80;55.50;;;;;;5090764;28;20248;-58
2022/02/17 01:51:42;;;;;;;4.68;1.27;;;24.90;55.50;;;;;;5091019;28;20260;-60
2022/02/17 01:54:12;;;;;;;3.53;1.52;;;24.90;55.40;;;;;;5089890;28;20236;-60
2022/02/17 01:56:46;;;;;;;4.28;1.60;;;24.90;55.40;;;;;;5090945;28;20190;-60
2022/02/17 01:59:16;;;;;;;3.65;1.58;;;24.90;55.30;;;;;;5089217;28;20198;-60
2022/02/17 02:01:47;;;;;;;3.47;1.40;;;24.90;55.30;;;;;;5090283;28;20205;-59
2022/02/17 02:04:18;;;;;;;2.40;1.50;;;24.90;55.30;;;;;;5090335;28;20198;-58
2022/02/17 02:06:49;;;;;;;5.00;1.50;;;24.90;55.30;;;;;;5089466;28;20251;-58
2022/02/17 02:09:19;;;;;;;6.53;1.88;;;24.90;55.10;;;;;;5090559;28;20263;-59
2022/02/17 02:11:52;;;;;;;3.45;1.52;;;24.90;55.10;;;;;;5090119;28;20259;-60
2022/02/17 02:14:23;;;;;;;2.45;1.45;;;24.90;55.00;;;;;;5090860;28;20186;-59
2022/02/17 02:16:54;;;;;;;1.95;1.58;;;25.00;55.00;;;;;;5089963;28;20236;-59
2022/02/17 02:19:25;;;;;;;3.03;1.30;;;25.00;55.00;;;;;;5090280;28;20224;-58
2022/02/17 02:21:57;;;;;;;3.67;1.38;;;25.00;55.00;;;;;;5090633;28;20190;-59
2022/02/17 02:24:28;;;;;;;4.45;1.38;;;25.00;55.00;;;;;;5090402;28;20769;-58
2022/02/17 02:26:58;;;;;;;5.00;1.92;;;25.00;55.10;;;;;;5090280;28;20190;-59
2022/02/17 02:29:29;;;;;;;3.92;1.48;;;25.00;55.10;;;;;;5089663;28;20268;-59
2022/02/17 02:32:00;;;;;;;3.80;1.70;;;25.00;55.00;;;;;;5091161;28;20198;-58
2022/02/17 02:34:30;;;;;;;2.60;1.60;;;25.00;54.90;;;;;;5090122;28;20687;-59
2022/02/17 02:37:03;;;;;;;3.15;1.35;;;25.10;54.90;;;;;;5090105;28;20201;-59
2022/02/17 02:39:33;;;;;;;4.03;1.52;;;25.10;54.90;;;;;;5089114;28;20218;-59
2022/02/17 02:42:05;;;;;;;4.25;1.63;;;25.10;55.00;;;;;;5089172;28;20865;-58
2022/02/17 02:44:35;;;;;;;5.13;1.40;;;25.10;55.00;;;;;;5088204;28;20190;-58
2022/02/17 02:47:06;;;;;;;5.03;1.30;;;25.10;54.90;;;;;;5088468;28;20275;-60
2022/02/17 02:49:40;;;;;;;3.78;1.48;;;25.10;54.90;;;;;;5089720;28;20214;-58
2022/02/17 02:52:13;;;;;;;3.03;1.30;;;25.10;54.80;;;;;;5089720;28;20205;-59
2022/02/17 02:54:43;;;;;;;4.10;1.30;;;25.20;54.80;;;;;;5089820;28;20190;-59
2022/02/17 02:57:14;;;;;;;2.72;1.55;;;25.20;54.70;;;;;;5089306;28;20186;-58
2022/02/17 02:59:45;;;;;;;5.05;1.55;;;25.20;54.70;;;;;;5089778;28;20259;-60
2022/02/17 03:02:15;;;;;;;3.65;1.38;;;25.20;54.60;;;;;;5089274;28;20277;-60
2022/02/17 03:04:46;;;;;;;3.70;1.40;;;25.30;54.60;;;;;;5089414;28;20243;-59
2022/02/17 03:07:18;;;;;;;5.00;1.65;;;25.30;54.60;;;;;;5089173;28;20190;-59
2022/02/17 03:09:49;;;;;;;4.80;1.38;;;25.30;54.50;;;;;;5088968;28;20274;-57
2022/02/17 03:12:20;;;;;;;3.22;1.35;;;25.30;54.60;;;;;;5087793;28;20216;-58
2022/02/17 03:14:50;;;;;;;2.63;1.40;;;25.30;54.60;;;;;;5089365;28;20198;-60
2022/02/17 03:17:21;;;;;;;5.22;1.90;;;25.30;54.50;;;;;;5088633;28;20192;-59
2022/02/17 03:19:52;;;;;;;3.63;1.55;;;25.40;54.60;;;;;;5089043;28;20677;-59
2022/02/17 03:22:24;;;;;;;3.05;1.10;;;25.40;54.50;;;;;;5089236;28;20209;-62
2022/02/17 03:24:55;;;;;;;2.88;1.20;;;25.40;54.50;;;;;;5088370;28;20232;-58
2022/02/17 03:27:26;;;;;;;3.58;1.42;;;25.40;54.40;;;;;;5088406;28;20195;-59
2022/02/17 03:29:56;;;;;;;2.92;1.35;;;25.50;54.40;;;;;;5088314;28;20221;-61
2022/02/17 03:32:27;;;;;;;2.92;1.38;;;25.50;54.30;;;;;;5089667;28;20609;-58
2022/02/17 03:34:58;;;;;;;2.75;1.30;;;25.50;54.30;;;;;;5089110;28;20193;-59
2022/02/17 03:37:30;;;;;;;4.90;1.73;;;25.60;54.30;;;;;;5088646;28;20190;-59
2022/02/17 03:40:01;;;;;;;2.30;1.10;;;25.60;54.20;;;;;;5088657;28;20218;-61
2022/02/17 03:42:31;;;;;;;3.60;1.35;;;25.60;54.10;;;;;;5088075;28;20194;-59
2022/02/17 03:45:02;;;;;;;3.72;1.42;;;25.60;54.10;;;;;;5089134;28;20650;-59
2022/02/17 03:47:33;;;;;;;3.95;1.52;;;25.70;54.10;;;;;;5088417;28;20190;-61
2022/02/17 03:50:03;;;;;;;3.80;1.25;;;25.70;54.10;;;;;;5088301;28;20210;-60
2022/02/17 03:52:37;;;;;;;1.85;1.15;;;25.70;54.10;;;;;;5087590;28;20190;-60
2022/02/17 03:55:11;;;;;;;2.47;1.13;;;25.80;54.10;;;;;;5089190;28;20190;-60
2022/02/17 03:57:42;;;;;;;3.47;1.40;;;25.80;54.10;;;;;;5087699;28;20193;-58
2022/02/17 04:00:13;;;;;;;2.67;1.30;;;25.80;54.10;;;;;;5088987;28;20283;-59
2022/02/17 04:02:44;;;;;;;3.33;1.40;;;25.80;54.00;;;;;;5089054;28;20864;-59
2022/02/17 04:05:14;;;;;;;2.70;1.10;;;25.80;53.90;;;;;;5088074;28;20194;-58
2022/02/17 04:07:47;;;;;;;5.75;1.50;;;25.90;53.90;;;;;;5088949;28;20259;-58
2022/02/17 04:10:17;;;;;;;2.60;1.42;;;25.90;53.90;;;;;;5088325;28;20209;-60
2022/02/17 04:12:48;;;;;;;3.17;1.52;;;25.90;53.90;;;;;;5088935;28;20266;-61
2022/02/17 04:15:19;;;;;;;3.38;1.40;;;25.90;53.80;;;;;;5087753;28;20186;-59
2022/02/17 04:17:51;;;;;;;4.10;1.65;;;26.00;53.80;;;;;;5088469;28;20198;-59
2022/02/17 04:20:21;;;;;;;3.20;1.70;;;26.00;53.80;;;;;;5088741;28;20218;-61
2022/02/17 04:22:54;;;;;;;3.50;1.27;;;26.00;53.70;;;;;;5090594;28;20202;-58
2022/02/17 04:25:25;;;;;;;2.45;1.30;;;26.00;53.70;;;;;;5092118;28;20205;-58
2022/02/17 04:27:55;;;;;;;3.47;1.50;;;26.10;53.70;;;;;;5092744;28;20186;-58
2022/02/17 04:30:26;;;;;;;3.47;1.20;;;26.10;53.60;;;;;;5092546;28;20213;-61
2022/02/17 04:32:56;;;;;;;4.63;1.58;;;26.10;53.50;;;;;;5092393;28;20247;-58
2022/02/17 04:35:27;;;;;;;2.15;1.30;;;26.10;53.50;;;;;;5092804;28;20194;-59
2022/02/17 04:38:00;;;;;;;3.35;1.60;;;26.20;53.50;;;;;;5091569;28;20243;-59
2022/02/17 04:43:14;;;;;;;2.33;1.40;;;26.20;53.40;;;;;;5047053;28;20738;-59
2022/02/17 04:45:45;;;;;;;3.50;1.30;;;26.20;53.30;;;;;;5092347;28;20194;-59
2022/02/17 04:48:15;;;;;;;3.30;1.40;;;26.20;53.30;;;;;;5091076;28;20194;-59
2022/02/17 04:50:46;;;;;;;3.22;1.33;;;26.30;53.30;;;;;;5091859;28;20225;-59
2022/02/17 04:53:20;;;;;;;2.55;1.40;;;26.30;53.20;;;;;;5092379;28;20236;-60
2022/02/17 04:55:51;;;;;;;2.47;1.30;;;26.30;53.20;;;;;;5091824;28;20208;-60
2022/02/17 04:58:22;;;;;;;1.67;1.10;;;26.30;53.20;;;;;;5092392;28;20704;-62
2022/02/17 05:00:53;;;;;;;3.08;1.23;;;26.30;53.20;;;;;;5092000;28;21829;-61
2022/02/17 05:03:24;;;;;;;2.42;1.30;;;26.40;53.30;;;;;;5092442;28;20198;-62
2022/02/17 05:05:56;;;;;;;2.65;1.23;;;26.40;53.30;;;;;;5090988;28;20259;-59
2022/02/17 05:08:28;;;;;;;4.03;1.48;;;26.40;53.30;;;;;;5092146;28;20190;-58
2022/02/17 05:10:59;;;;;;;3.58;1.13;;;26.40;53.20;;;;;;5091511;28;20225;-60
2022/02/17 05:13:29;;;;;;;1.40;1.10;;;26.50;53.30;;;;;;5091965;28;20190;-60
2022/02/17 05:16:00;;;;;;;2.90;1.30;;;26.50;53.10;;;;;;5090569;28;20666;-60
2022/02/17 05:18:31;;;;;;;3.95;1.33;;;26.50;53.00;;;;;;5091264;28;20201;-59
2022/02/17 05:21:01;;;;;;;3.28;1.42;;;26.50;52.90;;;;;;5091611;28;20257;-60
2022/02/17 05:23:34;;;;;;;2.53;1.52;;;26.50;52.90;;;;;;5091500;28;20190;-58
2022/02/17 05:26:04;;;;;;;2.40;1.50;;;26.50;52.80;;;;;;5093349;28;20239;-60
2022/02/17 05:28:35;;;;;;;2.13;1.00;;;26.50;52.80;;;;;;5092968;28;20197;-58
2022/02/17 05:31:08;;;;;;;2.10;1.15;;;26.50;52.70;;;;;;5092763;28;20681;-59
2022/02/17 05:33:39;;;;;;;2.85;1.48;;;26.60;52.80;;;;;;5091559;28;20267;-61
2022/02/17 05:36:09;;;;;;;2.53;1.17;;;26.60;52.80;;;;;;5092110;28;20842;-58
2022/02/17 05:38:42;;;;;;;2.40;1.20;;;26.60;52.70;;;;;;5092590;28;20255;-59
2022/02/17 05:41:13;;;;;;;1.85;1.27;;;26.60;52.80;;;;;;5092669;28;20233;-58
2022/02/17 05:43:44;;;;;;;3.80;1.60;;;26.60;52.70;;;;;;5092225;28;20194;-59
2022/02/17 05:46:15;;;;;;;3.85;1.58;;;26.60;52.70;;;;;;5092796;28;20194;-58
2022/02/17 05:48:45;;;;;;;4.07;1.33;;;26.60;52.80;;;;;;5092231;28;20248;-60
2022/02/17 05:51:19;;;;;;;3.13;1.38;;;26.60;52.70;;;;;;5091985;28;20926;-59
2022/02/17 05:53:51;;;;;;;3.28;1.40;;;26.60;52.60;;;;;;5092566;28;20646;-61
2022/02/17 05:56:22;;;;;;;2.80;1.30;;;26.60;52.70;;;;;;5072375;28;20187;-61
2022/02/17 05:58:52;;;;;;;4.95;1.63;;;26.60;52.80;;;;;;5072144;28;20194;-58
2022/02/17 06:01:23;;;;;;;1.88;1.15;;;26.70;52.80;;;;;;5071981;28;20225;-61
2022/02/17 06:03:54;;;;;;;3.78;1.60;;;26.70;52.80;;;;;;5071942;28;20198;-58
2022/02/17 06:06:24;;;;;;;2.55;1.20;;;26.60;52.70;;;;;;5072031;28;20202;-57
2022/02/17 06:08:57;;;;;;;3.85;1.30;;;26.70;52.80;;;;;;5071697;28;20190;-61
2022/02/17 06:11:27;;;;;;;2.80;1.30;;;26.70;52.70;;;;;;5071695;28;20245;-58
2022/02/17 06:13:58;;;;;;;2.88;1.38;;;26.70;52.60;;;;;;5071959;28;20205;-60
2022/02/17 06:16:28;;;;;;;4.18;1.73;;;26.70;52.60;;;;;;5071707;28;20224;-59
2022/02/17 06:18:59;;;;;;;3.65;1.85;;;26.70;53.20;;;;;;5071236;28;20198;-60
2022/02/17 06:21:30;;;;;;;4.22;1.92;;;26.70;52.50;;;;;;5076318;28;20198;-59
2022/02/17 06:24:02;;;;;;;4.20;2.15;;;26.70;52.50;;;;;;5091718;28;20194;-60
2022/02/17 06:26:33;;;;;;;6.40;2.08;;;26.70;52.40;;;;;;5071502;28;20203;-59
2022/02/17 06:29:04;;;;;;;5.07;2.13;;;26.70;52.40;;;;;;5071069;28;20195;-58
2022/02/17 06:31:34;;;;;;;5.18;2.00;;;26.70;52.50;;;;;;5081309;28;20271;-59
2022/02/17 06:34:07;;;;;;;3.35;2.00;;;26.70;52.50;;;;;;5091415;28;20239;-61
2022/02/17 06:36:37;;;;;;;3.60;2.00;;;26.70;52.50;;;;;;5091392;28;20202;-59
2022/02/17 06:39:10;;;;;;;4.05;2.10;;;26.70;52.60;;;;;;5091392;28;20190;-58
2022/02/17 06:41:41;;;;;;;5.53;2.30;;;26.70;52.70;;;;;;5090966;28;20667;-61
2022/02/17 06:44:12;;;;;;;4.32;1.85;;;26.70;52.70;;;;;;5090953;28;20574;-60
2022/02/17 06:46:42;;;;;;;5.32;2.10;;;26.70;52.50;;;;;;5089933;28;20277;-60
2022/02/17 06:49:13;;;;;;;4.40;1.92;;;26.70;52.50;;;;;;5090935;28;20201;-60
2022/02/17 06:51:44;;;;;;;3.70;1.85;;;26.70;52.60;;;;;;5091251;28;20261;-59
2022/02/17 06:54:16;;;;;;;4.63;2.05;;;26.70;52.70;;;;;;5091198;28;20203;-59
2022/02/17 06:56:47;;;;;;;2.83;1.77;;;26.60;52.80;;;;;;5071089;28;20617;-58
2022/02/17 06:59:18;;;;;;;4.57;2.00;;;26.60;52.70;;;;;;5070785;28;20678;-59
2022/02/17 07:01:48;;;;;;;5.05;2.55;;;26.60;52.70;;;;;;5070640;28;20195;-59
2022/02/17 07:04:19;;;;;;;5.43;2.22;;;26.60;52.70;;;;;;5070400;28;20256;-60
2022/02/17 07:06:49;;;;;;;5.22;2.08;;;26.60;52.80;;;;;;5070733;28;20199;-60
2022/02/17 07:09:22;;;;;;;3.90;2.05;;;26.60;52.80;;;;;;5070765;28;20223;-59
2022/02/17 07:11:54;;;;;;;5.38;2.00;;;26.60;52.80;;;;;;5070447;28;20272;-60
2022/02/17 07:14:25;;;;;;;3.95;2.00;;;26.50;52.80;;;;;;5070665;28;20289;-59
2022/02/17 07:16:58;;;;;;;5.22;2.10;;;26.50;52.80;;;;;;5070519;28;20282;-58
2022/02/17 07:19:29;;;;;;;4.55;1.92;;;26.50;52.80;;;;;;5069866;28;20218;-61
2022/02/17 07:22:00;;;;;;;4.47;2.17;;;26.50;52.80;;;;;;5079087;28;20198;-59
2022/02/17 07:24:32;;;;;;;3.58;1.90;;;26.50;52.80;;;;;;5090701;28;20236;-59
2022/02/17 07:27:03;;;;;;;3.92;1.70;;;26.50;52.80;;;;;;5090721;28;20202;-59
2022/02/17 07:29:34;;;;;;;3.55;2.10;;;26.50;52.80;;;;;;5090333;28;20714;-59
2022/02/17 07:32:06;;;;;;;2.85;2.05;;;26.50;52.90;;;;;;5091057;28;20226;-60
2022/02/17 07:34:39;;;;;;;3.45;1.85;;;26.40;52.80;;;;;;5090084;28;20263;-58
2022/02/17 07:37:10;;;;;;;3.13;2.08;;;26.40;52.80;;;;;;5090407;28;20722;-59
2022/02/17 07:39:42;;;;;;;4.60;1.90;;;26.40;52.90;;;;;;5090299;28;20214;-60
2022/02/17 07:42:13;;;;;;;4.32;2.17;;;26.40;52.90;;;;;;5090324;28;20255;-60
2022/02/17 07:44:43;;;;;;;4.05;2.20;;;26.40;53.00;;;;;;5090641;28;20190;-60
2022/02/17 07:47:14;;;;;;;5.05;1.90;;;26.30;53.00;;;;;;5090213;28;20200;-59
2022/02/17 07:49:45;;;;;;;4.00;2.13;;;26.30;53.00;;;;;;5089567;28;20225;-60
2022/02/17 07:52:15;;;;;;;4.68;1.80;;;26.30;53.00;;;;;;5090246;28;20676;-59
2022/02/17 07:54:48;;;;;;;3.92;1.90;;;26.30;53.10;;;;;;5089884;28;20202;-58
2022/02/17 07:57:18;;;;;;;4.40;1.75;;;26.20;53.00;;;;;;5090236;28;20594;-59
2022/02/17 07:59:49;;;;;;;5.22;2.00;;;26.20;53.20;;;;;;5090246;28;20218;-60
2022/02/17 08:02:20;;;;;;;4.15;1.75;;;26.20;53.20;;;;;;5090449;28;20243;-58
2022/02/17 08:04:50;;;;;;;5.75;2.13;;;26.20;53.20;;;;;;5089823;28;20657;-58
2022/02/17 08:07:21;;;;;;;4.65;2.08;;;26.20;53.30;;;;;;5089817;28;20198;-58
2022/02/17 08:09:55;;;;;;;2.83;1.70;;;26.20;53.30;;;;;;5089257;28;20271;-59
2022/02/17 08:12:26;;;;;;;5.80;1.92;;;26.10;53.30;;;;;;5089469;28;20348;-59
2022/02/17 08:14:58;;;;;;;3.25;1.60;;;26.10;53.30;;;;;;5089525;28;20201;-58
2022/02/17 08:17:28;;;;;;;3.83;2.05;;;26.10;53.30;;;;;;5089781;28;20190;-58
2022/02/17 08:19:59;;;;;;;4.38;1.65;;;26.10;53.30;;;;;;5089614;28;20615;-58
2022/02/17 08:22:29;;;;;;;3.72;1.67;;;26.10;53.30;;;;;;5089762;28;20202;-58
2022/02/17 08:25:02;;;;;;;4.30;2.20;;;26.00;53.30;;;;;;5089717;28;20711;-58
2022/02/17 08:27:34;;;;;;;3.25;1.52;;;26.00;53.30;;;;;;5089645;28;20220;-59
2022/02/17 08:30:05;;;;;;;3.97;1.83;;;26.00;53.30;;;;;;5089433;28;20272;-58
2022/02/17 08:32:38;;;;;;;4.10;1.85;;;25.90;53.30;;;;;;5086449;28;20218;-58
2022/02/17 08:35:10;;;;;;;3.95;1.95;;;25.90;53.30;;;;;;5088370;28;20243;-58
2022/02/17 08:37:41;;;;;;;3.28;1.88;;;25.80;53.30;;;;;;5088298;28;20646;-58
2022/02/17 08:40:15;;;;;;;3.47;1.80;;;25.80;53.40;;;;;;5088053;28;20685;-58
2022/02/17 08:42:46;;;;;;;3.42;1.73;;;25.80;53.40;;;;;;5088130;28;20255;-58
2022/02/17 08:45:16;;;;;;;4.50;1.55;;;25.80;53.50;;;;;;5088052;28;21620;-58
2022/02/17 08:47:47;;;;;;;2.50;1.65;;;25.80;53.50;;;;;;5087349;28;20186;-58
2022/02/17 08:50:18;;;;;;;3.72;1.83;;;25.70;53.50;;;;;;5087725;28;20226;-58
2022/02/17 08:52:48;;;;;;;5.13;2.00;;;25.70;53.60;;;;;;5087550;28;20271;-58
2022/02/17 08:55:21;;;;;;;2.17;1.77;;;25.70;53.60;;;;;;5088235;28;20259;-58
2022/02/17 08:57:51;;;;;;;3.95;1.67;;;25.70;53.60;;;;;;5087527;28;20194;-58
2022/02/17 09:00:22;;;;;;;3.33;1.75;;;25.60;53.60;;;;;;5086724;28;21522;-59
2022/02/17 09:02:53;;;;;;;2.47;1.77;;;25.60;53.60;;;;;;5087708;28;20701;-59
2022/02/17 09:05:24;;;;;;;3.78;1.67;;;25.60;53.60;;;;;;5087848;28;20186;-58
2022/02/17 09:07:55;;;;;;;3.05;1.77;;;25.60;53.60;;;;;;5088329;28;20711;-58
2022/02/17 09:10:27;;;;;;;3.13;1.90;;;25.50;53.50;;;;;;5089114;28;20678;-58
2022/02/17 09:12:58;;;;;;;3.00;1.73;;;25.50;53.60;;;;;;5091697;28;20271;-60
2022/02/17 09:15:29;;;;;;;3.28;1.75;;;25.50;53.60;;;;;;5091413;28;20595;-59
2022/02/17 09:17:59;;;;;;;2.88;1.73;;;25.50;53.60;;;;;;5091317;28;20201;-58
2022/02/17 09:20:32;;;;;;;3.55;1.90;;;25.40;53.70;;;;;;5091171;28;20271;-58
2022/02/17 09:23:06;;;;;;;2.88;1.70;;;25.40;53.60;;;;;;5090807;28;20196;-58
2022/02/17 09:25:38;;;;;;;3.10;1.88;;;25.30;53.60;;;;;;5091699;28;20658;-58
2022/02/17 09:28:10;;;;;;;3.35;2.00;;;25.30;53.60;;;;;;5091172;28;20271;-59
2022/02/17 09:30:43;;;;;;;2.33;1.90;;;25.30;53.70;;;;;;5091701;28;20715;-59
2022/02/17 09:33:14;;;;;;;3.15;1.67;;;25.30;53.70;;;;;;5090878;28;20275;-59
2022/02/17 09:35:45;;;;;;;3.65;1.80;;;25.20;53.80;;;;;;5089115;28;20202;-58
2022/02/17 09:38:15;;;;;;;1.83;1.50;;;25.20;53.70;;;;;;5089525;28;20202;-58
2022/02/17 09:40:48;;;;;;;3.72;1.85;;;25.20;53.70;;;;;;5091004;28;20249;-59
2022/02/17 09:43:19;;;;;;;2.70;1.55;;;25.20;53.80;;;;;;5090720;28;20198;-58
2022/02/17 09:45:51;;;;;;;2.50;1.63;;;25.10;53.90;;;;;;5090632;28;20202;-59
2022/02/17 09:48:22;;;;;;;3.20;1.60;;;25.10;53.90;;;;;;5090900;28;20650;-59
2022/02/17 09:50:53;;;;;;;2.50;1.73;;;25.10;53.90;;;;;;5091069;28;20267;-59
2022/02/17 09:53:24;;;;;;;2.28;1.50;;;25.10;53.90;;;;;;5090580;28;20586;-58
2022/02/17 09:55:56;;;;;;;3.45;1.73;;;25.10;53.90;;;;;;5090437;28;20186;-58
2022/02/17 09:58:27;;;;;;;2.72;1.60;;;25.00;53.90;;;;;;5090176;28;20194;-58
2022/02/17 10:00:58;;;;;;;2.85;1.58;;;25.00;53.80;;;;;;5089395;28;20210;-58
2022/02/17 10:03:32;;;;;;;3.03;1.67;;;25.00;53.90;;;;;;5090189;28;20194;-59
2022/02/17 10:06:13;;;;;;;2.65;1.90;;;24.90;53.90;;;;;;5089729;28;20277;-58
2022/02/17 10:08:44;;;;;;;4.45;1.83;;;24.90;54.00;;;;;;5090125;28;20645;-58
2022/02/17 10:11:30;;;;;;;2.47;1.60;;;24.90;54.00;;;;;;5090994;28;20243;-58
2022/02/17 10:14:06;;;;;;;3.13;1.92;;;24.90;54.00;;;;;;5089781;28;20724;-60
2022/02/17 10:16:54;;;;;;;2.22;1.52;;;24.80;53.90;;;;;;5089771;28;20197;-59
2022/02/17 10:19:26;;;;;;;3.50;1.45;;;24.80;54.00;;;;;;5089861;28;20742;-60
2022/02/17 10:22:07;;;;;;;2.78;1.83;;;24.80;53.90;;;;;;5089735;28;20290;-58
2022/02/17 10:24:43;;;;;;;3.70;1.80;;;24.70;53.90;;;;;;5090260;28;20244;-58
2022/02/17 10:27:16;;;;;;;3.63;1.80;;;24.70;54.00;;;;;;5090215;28;20193;-58
2022/02/17 10:30:07;;;;;;;1.90;1.52;;;24.70;54.10;;;;;;5089445;28;20221;-59
2022/02/17 10:32:38;;;;;;;4.30;1.70;;;24.60;54.00;;;;;;5090169;28;20297;-61
2022/02/17 10:35:15;;;;;;;3.03;1.60;;;24.60;54.00;;;;;;5089818;28;20657;-60
2022/02/17 10:37:50;;;;;;;2.78;1.73;;;24.60;54.00;;;;;;5088772;28;20225;-59
2022/02/17 10:40:23;;;;;;;2.85;1.55;;;24.60;54.10;;;;;;5089940;28;20209;-59
2022/02/17 10:43:08;;;;;;;2.92;1.60;;;24.60;54.10;;;;;;5089545;28;20229;-59
2022/02/17 10:45:39;;;;;;;3.80;1.85;;;24.50;54.00;;;;;;5090127;28;20673;-59
2022/02/17 10:48:18;;;;;;;3.20;1.80;;;24.50;54.00;;;;;;5090124;28;20218;-60
2022/02/17 10:50:49;;;;;;;4.15;1.60;;;24.50;54.00;;;;;;5088834;28;20279;-60
2022/02/17 10:53:21;;;;;;;2.53;1.50;;;24.50;54.00;;;;;;5088943;28;20218;-60
2022/02/17 10:55:56;;;;;;;3.10;1.65;;;24.50;54.10;;;;;;5088814;28;20190;-59
2022/02/17 10:58:31;;;;;;;3.45;2.05;;;24.40;54.10;;;;;;5089308;28;20250;-59
2022/02/17 11:01:03;;;;;;;2.47;1.33;;;24.40;54.10;;;;;;5089797;28;20214;-58
2022/02/17 11:03:35;;;;;;;2.55;1.88;;;24.40;54.10;;;;;;5090262;28;20190;-59
2022/02/17 11:06:06;;;;;;;3.17;1.65;;;24.30;54.10;;;;;;5092663;28;20194;-58
2022/02/17 11:08:40;;;;;;;2.42;1.63;;;24.30;54.10;;;;;;5092159;28;20198;-58
2022/02/17 11:11:13;;;;;;;3.22;1.80;;;24.30;54.10;;;;;;5090757;28;20267;-59
2022/02/17 11:13:48;;;;;;;3.20;1.92;;;24.30;54.20;;;;;;5090769;28;20225;-58
2022/02/17 11:16:22;;;;;;;2.45;1.60;;;24.20;54.20;;;;;;5091170;28;20197;-59
2022/02/17 11:18:54;;;;;;;2.08;1.50;;;24.20;54.20;;;;;;5090350;28;20940;-59
2022/02/17 11:21:25;;;;;;;2.90;1.48;;;24.20;54.20;;;;;;5090429;28;20228;-59
2022/02/17 11:24:05;;;;;;;2.92;1.77;;;24.20;54.20;;;;;;5090702;28;20194;-58
2022/02/17 11:26:36;;;;;;;2.00;1.42;;;24.10;54.10;;;;;;5090444;28;20563;-58
2022/02/17 11:29:30;;;;;;;2.00;1.63;;;24.10;54.10;;;;;;5090664;28;20198;-59
2022/02/17 11:32:02;;;;;;;1.70;1.30;;;24.10;54.10;;;;;;5090443;28;20301;-59
2022/02/17 11:34:41;;;;;;;2.92;1.45;;;24.10;54.10;;;;;;5090085;28;20641;-59
2022/02/17 11:37:47;;;;;;;2.42;1.33;;;24.10;54.10;;;;;;5090498;28;20211;-59
2022/02/17 11:40:20;;;;;;;2.88;1.60;;;24.00;54.10;;;;;;5027804;28;20310;-58
2022/02/17 11:43:03;;;;;;;2.88;1.48;;;24.00;54.10;;;;;;5082500;28;20206;-59
2022/02/17 11:45:47;;;;;;;3.35;1.70;;;24.00;54.10;;;;;;5090518;28;20281;-58
2022/02/17 11:48:17;;;;;;;2.55;1.48;;;23.90;54.10;;;;;;5090662;28;20891;-58
2022/02/17 11:50:49;;;;;;;3.85;1.75;;;23.90;54.10;;;;;;5090081;28;20271;-59
2022/02/17 11:53:31;;;;;;;2.67;1.60;;;23.80;54.10;;;;;;5071324;28;20226;-59
2022/02/17 11:56:36;;;;;;;2.08;1.40;;;23.80;54.20;;;;;;5088993;28;20271;-59
2022/02/17 11:59:26;;;;;;;1.70;1.30;;;23.80;54.20;;;;;;5090256;28;20194;-60
2022/02/17 12:01:59;;;;;;;1.70;1.50;;;23.80;54.20;;;;;;5090242;28;20197;-60
2022/02/17 12:04:30;;;;;;;2.95;1.55;;;23.70;54.20;;;;;;5090317;28;20186;-60
2022/02/17 12:07:02;;;;;;;1.40;1.30;;;23.70;54.20;;;;;;5090369;28;20613;-59
2022/02/17 12:09:41;;;;;;;3.60;1.75;;;23.70;54.30;;;;;;5089996;28;20218;-59
2022/02/17 12:12:39;;;;;;;1.90;1.40;;;23.70;54.30;;;;;;5089622;28;20288;-58
2022/02/17 12:15:20;;;;;;;2.58;1.30;;;23.60;54.20;;;;;;5090073;28;20210;-61
2022/02/17 12:17:53;;;;;;;2.20;1.25;;;23.60;54.30;;;;;;5090249;28;20259;-58
2022/02/17 12:20:25;;;;;;;2.33;1.40;;;23.60;54.20;;;;;;5089496;28;20214;-58
2022/02/17 12:22:56;;;;;;;2.15;1.50;;;23.60;54.30;;;;;;5089488;28;20213;-59
2022/02/17 12:25:29;;;;;;;3.28;1.48;;;23.60;54.20;;;;;;5089633;28;20235;-58
2022/02/17 12:28:01;;;;;;;2.92;1.25;;;23.50;54.20;;;;;;5089823;28;20239;-60
2022/02/17 12:30:34;;;;;;;3.10;1.73;;;23.50;54.20;;;;;;5089463;28;20221;-58
2022/02/17 12:33:18;;;;;;;2.75;1.50;;;23.50;54.30;;;;;;5089999;28;20229;-59
2022/02/17 12:35:57;;;;;;;1.38;1.13;;;23.40;54.20;;;;;;5089293;28;20279;-59
2022/02/17 12:38:30;;;;;;;1.83;1.45;;;23.40;54.20;;;;;;5089800;28;20202;-59
2022/02/17 12:41:01;;;;;;;1.80;1.33;;;23.40;54.30;;;;;;5089668;28;20286;-60
2022/02/17 12:43:34;;;;;;;1.70;1.30;;;23.40;54.30;;;;;;5091885;28;20277;-59
2022/02/17 12:46:06;;;;;;;1.88;1.40;;;23.40;54.30;;;;;;5093727;28;20283;-58
2022/02/17 12:48:40;;;;;;;2.13;1.38;;;23.30;54.30;;;;;;5093756;28;20244;-59
2022/02/17 12:51:11;;;;;;;2.03;1.40;;;23.30;54.40;;;;;;5092752;28;20225;-59
2022/02/17 12:53:52;;;;;;;1.65;1.30;;;23.30;54.40;;;;;;5093495;28;20230;-59
2022/02/17 12:56:26;;;;;;;2.45;1.40;;;23.20;54.40;;;;;;5093488;28;20204;-59
2022/02/17 12:59:04;;;;;;;2.13;1.20;;;23.20;54.40;;;;;;5093438;28;20189;-59
2022/02/17 13:01:35;;;;;;;1.63;1.38;;;23.20;54.40;;;;;;5093147;28;20196;-59
2022/02/17 13:04:07;;;;;;;1.42;1.33;;;23.20;54.40;;;;;;5092735;28;20526;-61
2022/02/17 13:06:38;;;;;;;1.80;1.20;;;23.20;54.40;;;;;;5093465;28;20190;-60
2022/02/17 13:09:19;;;;;;;1.88;1.42;;;23.20;54.40;;;;;;5093318;28;20219;-60
2022/02/17 13:11:52;;;;;;;2.08;1.38;;;23.10;54.40;;;;;;5093472;28;20227;-58
2022/02/17 13:14:24;;;;;;;2.17;1.35;;;23.10;54.40;;;;;;5093272;28;20232;-59
2022/02/17 13:16:57;;;;;;;1.77;1.40;;;23.10;54.40;;;;;;5093069;28;20281;-60